sensor_id;sensor_type;location;lat;lon;timestamp;pressure;altitude;pressure_sealevel;temperature;humidity
32638;BME280;19045;52.268;10.506;2022-11-15T00:01:06;100227.81;;;7.08;98.92
32638;BME280;19045;52.268;10.506;2022-11-15T00:03:33;100224.66;;;7.11;98.82
32638;BME280;19045;52.268;10.506;2022-11-15T00:06:03;100225.88;;;7.20;99.20
32638;BME280;19045;52.268;10.506;2022-11-15T00:08:30;100224.72;;;7.16;98.94
32638;BME280;19045;52.268;10.506;2022-11-15T00:10:58;100222.22;;;7.10;98.98
32638;BME280;19045;52.268;10.506;2022-11-15T00:13:25;100222.22;;;7.10;99.88
32638;BME280;19045;52.268;10.506;2022-11-15T00:15:52;100223.63;;;7.12;99.70
32638;BME280;19045;52.268;10.506;2022-11-15T00:18:18;100230.81;;;7.12;99.50
32638;BME280;19045;52.268;10.506;2022-11-15T00:20:45;100232.66;;;7.11;99.09
32638;BME280;19045;52.268;10.506;2022-11-15T00:23:13;100226.16;;;7.07;100.00
32638;BME280;19045;52.268;10.506;2022-11-15T00:25:40;100228.97;;;7.12;99.95
32638;BME280;19045;52.268;10.506;2022-11-15T00:28:06;100226.16;;;7.07;100.00
32638;BME280;19045;52.268;10.506;2022-11-15T00:30:33;100221.78;;;7.01;100.00
32638;BME280;19045;52.268;10.506;2022-11-15T00:33:02;100218.78;;;6.98;100.00
32638;BME280;19045;52.268;10.506;2022-11-15T00:35:31;100226.88;;;7.03;100.00
32638;BME280;19045;52.268;10.506;2022-11-15T00:37:57;100229.88;;;7.06;100.00
32638;BME280;19045;52.268;10.506;2022-11-15T00:40:26;100225.34;;;7.07;100.00
32638;BME280;19045;52.268;10.506;2022-11-15T00:42:52;100225.75;;;6.99;100.00
32638;BME280;19045;52.268;10.506;2022-11-15T00:45:19;100230.69;;;7.07;100.00
32638;BME280;19045;52.268;10.506;2022-11-15T00:47:46;100231.81;;;6.94;100.00
32638;BME280;19045;52.268;10.506;2022-11-15T00:50:13;100227.41;;;6.88;100.00
32638;BME280;19045;52.268;10.506;2022-11-15T00:52:39;100233.44;;;6.84;100.00
32638;BME280;19045;52.268;10.506;2022-11-15T00:55:07;100230.22;;;6.82;100.00
32638;BME280;19045;52.268;10.506;2022-11-15T00:57:35;100230.69;;;6.79;100.00
32638;BME280;19045;52.268;10.506;2022-11-15T01:00:03;100228.84;;;6.79;100.00
32638;BME280;19045;52.268;10.506;2022-11-15T01:02:30;100224.28;;;6.80;100.00
32638;BME280;19045;52.268;10.506;2022-11-15T01:04:56;100216.19;;;6.74;100.00
32638;BME280;19045;52.268;10.506;2022-11-15T01:07:23;100213.06;;;6.78;100.00
32638;BME280;19045;52.268;10.506;2022-11-15T01:09:50;100215.16;;;6.75;100.00
32638;BME280;19045;52.268;10.506;2022-11-15T01:12:16;100210.88;;;6.74;100.00
32638;BME280;19045;52.268;10.506;2022-11-15T01:14:44;100210.53;;;6.71;100.00
32638;BME280;19045;52.268;10.506;2022-11-15T01:17:11;100208.81;;;6.65;100.00
32638;BME280;19045;52.268;10.506;2022-11-15T01:19:37;100195.47;;;6.65;100.00
32638;BME280;19045;52.268;10.506;2022-11-15T01:22:04;100209.00;;;6.75;100.00
32638;BME280;19045;52.268;10.506;2022-11-15T01:24:31;100200.66;;;6.71;100.00
32638;BME280;19045;52.268;10.506;2022-11-15T01:26:57;100199.75;;;6.66;100.00
32638;BME280;19045;52.268;10.506;2022-11-15T01:29:24;100198.00;;;6.60;100.00
32638;BME280;19045;52.268;10.506;2022-11-15T01:31:52;100202.44;;;6.66;100.00
32638;BME280;19045;52.268;10.506;2022-11-15T01:34:19;100200.19;;;6.63;100.00
32638;BME280;19045;52.268;10.506;2022-11-15T01:36:45;100197.44;;;6.58;100.00
32638;BME280;19045;52.268;10.506;2022-11-15T01:39:12;100203.00;;;6.56;100.00
32638;BME280;19045;52.268;10.506;2022-11-15T01:41:38;100195.34;;;6.60;100.00
32638;BME280;19045;52.268;10.506;2022-11-15T01:44:40;100195.00;;;6.56;100.00
32638;BME280;19045;52.268;10.506;2022-11-15T01:47:12;100193.06;;;6.52;100.00
32638;BME280;19045;52.268;10.506;2022-11-15T01:49:43;100193.06;;;6.52;100.00
32638;BME280;19045;52.268;10.506;2022-11-15T01:52:16;100194.34;;;6.49;100.00
32638;BME280;19045;52.268;10.506;2022-11-15T01:54:44;100189.78;;;6.50;100.00
32638;BME280;19045;52.268;10.506;2022-11-15T01:57:11;100185.88;;;6.52;100.00
32638;BME280;19045;52.268;10.506;2022-11-15T01:59:41;100190.72;;;6.55;100.00
32638;BME280;19045;52.268;10.506;2022-11-15T02:02:10;100186.22;;;6.56;100.00
32638;BME280;19045;52.268;10.506;2022-11-15T02:04:40;100177.28;;;6.50;100.00
32638;BME280;19045;52.268;10.506;2022-11-15T02:07:08;100177.28;;;6.50;100.00
32638;BME280;19045;52.268;10.506;2022-11-15T02:09:36;100171.81;;;6.57;100.00
32638;BME280;19045;52.268;10.506;2022-11-15T02:12:04;100168.56;;;6.55;100.00
32638;BME280;19045;52.268;10.506;2022-11-15T02:14:32;100169.94;;;6.57;100.00
32638;BME280;19045;52.268;10.506;2022-11-15T02:17:04;100170.19;;;6.56;100.00
32638;BME280;19045;52.268;10.506;2022-11-15T02:20:11;100166.25;;;6.58;100.00
32638;BME280;19045;52.268;10.506;2022-11-15T02:22:48;100158.22;;;6.58;100.00
32638;BME280;19045;52.268;10.506;2022-11-15T02:25:39;100157.75;;;6.61;100.00
32638;BME280;19045;52.268;10.506;2022-11-15T02:31:18;100140.22;;;6.65;100.00
32638;BME280;19045;52.268;10.506;2022-11-15T02:33:53;100137.91;;;6.69;100.00
32638;BME280;19045;52.268;10.506;2022-11-15T02:36:42;100133.94;;;6.71;100.00
32638;BME280;19045;52.268;10.506;2022-11-15T02:39:17;100133.13;;;6.71;100.00
32638;BME280;19045;52.268;10.506;2022-11-15T02:41:52;100124.28;;;6.70;100.00
32638;BME280;19045;52.268;10.506;2022-11-15T02:44:24;100140.66;;;6.74;100.00
32638;BME280;19045;52.268;10.506;2022-11-15T02:46:56;100132.41;;;6.75;100.00
32638;BME280;19045;52.268;10.506;2022-11-15T02:49:41;100133.53;;;6.80;100.00
32638;BME280;19045;52.268;10.506;2022-11-15T02:52:14;100129.47;;;6.77;100.00
32638;BME280;19045;52.268;10.506;2022-11-15T02:54:41;100131.94;;;6.79;100.00
32638;BME280;19045;52.268;10.506;2022-11-15T02:57:12;100134.81;;;6.77;100.00
32638;BME280;19045;52.268;10.506;2022-11-15T03:00:03;100136.34;;;6.73;100.00
32638;BME280;19045;52.268;10.506;2022-11-15T03:02:50;100132.88;;;6.72;100.00
32638;BME280;19045;52.268;10.506;2022-11-15T03:05:25;100140.56;;;6.69;100.00
32638;BME280;19045;52.268;10.506;2022-11-15T03:08:01;100133.13;;;6.71;100.00
32638;BME280;19045;52.268;10.506;2022-11-15T03:10:36;100133.44;;;6.74;100.00
32638;BME280;19045;52.268;10.506;2022-11-15T03:13:14;100126.59;;;6.79;100.00
32638;BME280;19045;52.268;10.506;2022-11-15T03:15:48;100122.69;;;6.86;100.00
32638;BME280;19045;52.268;10.506;2022-11-15T03:18:22;100117.69;;;6.90;100.00
32638;BME280;19045;52.268;10.506;2022-11-15T03:20:52;100117.78;;;6.95;100.00
32638;BME280;19045;52.268;10.506;2022-11-15T03:23:19;100121.84;;;6.97;100.00
32638;BME280;19045;52.268;10.506;2022-11-15T03:25:48;100122.16;;;7.01;100.00
32638;BME280;19045;52.268;10.506;2022-11-15T03:28:21;100121.31;;;7.12;100.00
32638;BME280;19045;52.268;10.506;2022-11-15T03:30:51;100124.53;;;7.14;100.00
32638;BME280;19045;52.268;10.506;2022-11-15T03:33:21;100116.34;;;7.37;100.00
32638;BME280;19045;52.268;10.506;2022-11-15T03:35:48;100124.84;;;7.51;100.00
32638;BME280;19045;52.268;10.506;2022-11-15T03:38:19;100115.97;;;7.45;100.00
32638;BME280;19045;52.268;10.506;2022-11-15T03:40:53;100109.53;;;7.46;100.00
32638;BME280;19045;52.268;10.506;2022-11-15T03:43:26;100103.31;;;7.41;100.00
32638;BME280;19045;52.268;10.506;2022-11-15T03:45:58;100116.19;;;7.44;100.00
32638;BME280;19045;52.268;10.506;2022-11-15T03:48:32;100105.75;;;7.42;100.00
32638;BME280;19045;52.268;10.506;2022-11-15T03:51:01;100114.97;;;7.51;100.00
32638;BME280;19045;52.268;10.506;2022-11-15T03:53:28;100109.53;;;7.46;100.00
32638;BME280;19045;52.268;10.506;2022-11-15T03:55:56;100104.69;;;7.43;100.00
32638;BME280;19045;52.268;10.506;2022-11-15T03:58:22;100104.94;;;7.58;100.00
32638;BME280;19045;52.268;10.506;2022-11-15T04:00:49;100113.34;;;7.67;100.00
32638;BME280;19045;52.268;10.506;2022-11-15T04:03:15;100111.78;;;7.71;100.00
32638;BME280;19045;52.268;10.506;2022-11-15T04:05:43;100112.44;;;7.78;100.00
32638;BME280;19045;52.268;10.506;2022-11-15T04:08:10;100118.81;;;7.77;100.00
32638;BME280;19045;52.268;10.506;2022-11-15T04:10:37;100117.66;;;7.90;100.00
32638;BME280;19045;52.268;10.506;2022-11-15T04:13:03;100117.28;;;7.81;100.00
32638;BME280;19045;52.268;10.506;2022-11-15T04:15:30;100125.47;;;7.74;100.00
32638;BME280;19045;52.268;10.506;2022-11-15T04:17:56;100119.97;;;7.81;100.00
32638;BME280;19045;52.268;10.506;2022-11-15T04:20:25;100114.63;;;7.81;100.00
32638;BME280;19045;52.268;10.506;2022-11-15T04:23:13;100132.75;;;7.79;100.00
32638;BME280;19045;52.268;10.506;2022-11-15T04:26:00;100134.72;;;7.67;100.00
32638;BME280;19045;52.268;10.506;2022-11-15T04:28:27;100131.25;;;7.50;100.00
32638;BME280;19045;52.268;10.506;2022-11-15T04:30:54;100128.66;;;7.55;100.00
32638;BME280;19045;52.268;10.506;2022-11-15T04:33:21;100132.66;;;7.52;100.00
32638;BME280;19045;52.268;10.506;2022-11-15T04:35:48;100133.09;;;7.49;100.00
32638;BME280;19045;52.268;10.506;2022-11-15T04:38:30;100139.34;;;7.55;100.00
32638;BME280;19045;52.268;10.506;2022-11-15T04:40:57;100139.59;;;7.53;100.00
32638;BME280;19045;52.268;10.506;2022-11-15T04:43:24;100131.84;;;7.52;100.00
32638;BME280;19045;52.268;10.506;2022-11-15T04:45:50;100139.25;;;7.50;100.00
32638;BME280;19045;52.268;10.506;2022-11-15T04:48:17;100143.72;;;7.44;100.00
32638;BME280;19045;52.268;10.506;2022-11-15T04:50:44;100134.41;;;7.47;100.00
32638;BME280;19045;52.268;10.506;2022-11-15T04:53:10;100140.06;;;7.50;100.00
32638;BME280;19045;52.268;10.506;2022-11-15T04:55:38;100139.75;;;7.47;100.00
32638;BME280;19045;52.268;10.506;2022-11-15T04:58:05;100144.22;;;7.58;100.00
32638;BME280;19045;52.268;10.506;2022-11-15T05:00:31;100140.66;;;7.52;100.00
32638;BME280;19045;52.268;10.506;2022-11-15T05:02:58;100148.09;;;7.50;100.00
32638;BME280;19045;52.268;10.506;2022-11-15T05:05:42;100142.53;;;7.52;100.00
32638;BME280;19045;52.268;10.506;2022-11-15T05:08:09;100142.53;;;7.52;100.00
32638;BME280;19045;52.268;10.506;2022-11-15T05:10:35;100142.75;;;7.50;100.00
32638;BME280;19045;52.268;10.506;2022-11-15T05:13:03;100130.53;;;7.54;100.00
32638;BME280;19045;52.268;10.506;2022-11-15T05:15:30;100144.59;;;7.50;100.00
32638;BME280;19045;52.268;10.506;2022-11-15T05:17:58;100140.91;;;7.51;100.00
32638;BME280;19045;52.268;10.506;2022-11-15T05:20:25;100137.34;;;7.45;100.00
32638;BME280;19045;52.268;10.506;2022-11-15T05:22:52;100127.44;;;7.46;100.00
32638;BME280;19045;52.268;10.506;2022-11-15T05:25:19;100129.06;;;7.47;100.00
32638;BME280;19045;52.268;10.506;2022-11-15T05:27:46;100138.63;;;7.43;100.00
32638;BME280;19045;52.268;10.506;2022-11-15T05:30:15;100137.25;;;7.40;100.00
32638;BME280;19045;52.268;10.506;2022-11-15T05:32:42;100138.00;;;7.36;100.00
32638;BME280;19045;52.268;10.506;2022-11-15T05:35:13;100135.31;;;7.52;100.00
32638;BME280;19045;52.268;10.506;2022-11-15T05:37:43;100133.03;;;7.44;100.00
32638;BME280;19045;52.268;10.506;2022-11-15T05:40:10;100130.38;;;7.44;100.00
32638;BME280;19045;52.268;10.506;2022-11-15T05:42:37;100124.84;;;7.51;100.00
32638;BME280;19045;52.268;10.506;2022-11-15T05:45:06;100134.41;;;7.47;100.00
32638;BME280;19045;52.268;10.506;2022-11-15T05:47:36;100133.91;;;7.50;100.00
32638;BME280;19045;52.268;10.506;2022-11-15T05:50:05;100119.41;;;7.46;100.00
32638;BME280;19045;52.268;10.506;2022-11-15T05:52:35;100128.69;;;7.38;100.00
32638;BME280;19045;52.268;10.506;2022-11-15T05:55:05;100129.22;;;7.40;100.00
32638;BME280;19045;52.268;10.506;2022-11-15T05:57:33;100131.25;;;7.33;100.00
32638;BME280;19045;52.268;10.506;2022-11-15T06:00:00;100128.25;;;7.29;100.00
32638;BME280;19045;52.268;10.506;2022-11-15T06:02:27;100137.00;;;7.42;100.00
32638;BME280;19045;52.268;10.506;2022-11-15T06:04:55;100129.00;;;7.25;100.00
32638;BME280;19045;52.268;10.506;2022-11-15T06:07:22;100135.16;;;7.25;100.00
32638;BME280;19045;52.268;10.506;2022-11-15T06:09:48;100136.09;;;7.19;100.00
32638;BME280;19045;52.268;10.506;2022-11-15T06:12:15;100137.41;;;7.17;100.00
32638;BME280;19045;52.268;10.506;2022-11-15T06:14:42;100147.19;;;7.11;100.00
32638;BME280;19045;52.268;10.506;2022-11-15T06:17:08;100146.06;;;7.07;100.00
32638;BME280;19045;52.268;10.506;2022-11-15T06:19:35;100154.88;;;7.08;100.00
32638;BME280;19045;52.268;10.506;2022-11-15T06:22:03;100153.84;;;7.09;100.00
32638;BME280;19045;52.268;10.506;2022-11-15T06:24:29;100156.34;;;7.15;100.00
32638;BME280;19045;52.268;10.506;2022-11-15T06:26:56;100165.78;;;7.06;100.00
32638;BME280;19045;52.268;10.506;2022-11-15T06:29:24;100165.72;;;7.01;100.00
32638;BME280;19045;52.268;10.506;2022-11-15T06:31:51;100162.72;;;6.98;100.00
32638;BME280;19045;52.268;10.506;2022-11-15T06:34:17;100159.97;;;7.09;100.00
32638;BME280;19045;52.268;10.506;2022-11-15T06:36:44;100161.25;;;7.07;100.00
32638;BME280;19045;52.268;10.506;2022-11-15T06:39:12;100154.78;;;7.19;100.00
32638;BME280;19045;52.268;10.506;2022-11-15T06:41:39;100165.59;;;7.24;100.00
32638;BME280;19045;52.268;10.506;2022-11-15T06:44:05;100161.59;;;7.10;100.00
32638;BME280;19045;52.268;10.506;2022-11-15T06:46:32;100162.75;;;7.14;100.00
32638;BME280;19045;52.268;10.506;2022-11-15T06:48:58;100175.06;;;7.15;100.00
32638;BME280;19045;52.268;10.506;2022-11-15T06:51:25;100178.47;;;7.27;100.00
32638;BME280;19045;52.268;10.506;2022-11-15T06:53:51;100181.94;;;7.28;100.00
32638;BME280;19045;52.268;10.506;2022-11-15T06:56:19;100179.28;;;7.28;100.00
32638;BME280;19045;52.268;10.506;2022-11-15T06:58:46;100177.16;;;7.30;100.00
32638;BME280;19045;52.268;10.506;2022-11-15T07:01:13;100179.50;;;7.26;100.00
32638;BME280;19045;52.268;10.506;2022-11-15T07:03:41;100180.47;;;7.20;100.00
32638;BME280;19045;52.268;10.506;2022-11-15T07:06:08;100193.59;;;7.22;100.00
32638;BME280;19045;52.268;10.506;2022-11-15T07:08:36;100192.19;;;7.19;100.00
32638;BME280;19045;52.268;10.506;2022-11-15T07:11:07;100190.00;;;7.16;100.00
32638;BME280;19045;52.268;10.506;2022-11-15T07:13:35;100202.50;;;7.27;100.00
32638;BME280;19045;52.268;10.506;2022-11-15T07:16:03;100207.13;;;7.32;100.00
32638;BME280;19045;52.268;10.506;2022-11-15T07:18:34;100206.25;;;7.43;100.00
32638;BME280;19045;52.268;10.506;2022-11-15T07:21:02;100212.72;;;7.47;100.00
32638;BME280;19045;52.268;10.506;2022-11-15T07:23:29;100211.44;;;7.50;100.00
32638;BME280;19045;52.268;10.506;2022-11-15T07:25:56;100217.59;;;7.50;100.00
32638;BME280;19045;52.268;10.506;2022-11-15T07:28:24;100214.53;;;7.58;100.00
32638;BME280;19045;52.268;10.506;2022-11-15T07:30:52;100203.91;;;7.63;100.00
32638;BME280;19045;52.268;10.506;2022-11-15T07:33:19;100197.91;;;7.73;100.00
32638;BME280;19045;52.268;10.506;2022-11-15T07:35:45;100194.91;;;7.86;100.00
32638;BME280;19045;52.268;10.506;2022-11-15T07:38:14;100192.38;;;7.79;100.00
32638;BME280;19045;52.268;10.506;2022-11-15T07:40:45;100190.44;;;7.92;100.00
32638;BME280;19045;52.268;10.506;2022-11-15T07:43:12;100199.72;;;8.06;100.00
32638;BME280;19045;52.268;10.506;2022-11-15T07:45:41;100197.69;;;8.29;100.00
32638;BME280;19045;52.268;10.506;2022-11-15T07:48:09;100187.13;;;8.40;99.82
32638;BME280;19045;52.268;10.506;2022-11-15T07:50:36;100185.63;;;8.49;99.70
32638;BME280;19045;52.268;10.506;2022-11-15T07:53:03;100198.38;;;8.63;99.06
32638;BME280;19045;52.268;10.506;2022-11-15T07:55:29;100190.41;;;8.68;98.49
32638;BME280;19045;52.268;10.506;2022-11-15T07:58:00;100196.19;;;8.82;98.03
32638;BME280;19045;52.268;10.506;2022-11-15T08:00:27;100186.81;;;9.06;96.71
32638;BME280;19045;52.268;10.506;2022-11-15T08:03:01;100182.75;;;9.30;94.81
32638;BME280;19045;52.268;10.506;2022-11-15T08:05:29;100179.16;;;9.83;92.22
32638;BME280;19045;52.268;10.506;2022-11-15T08:07:56;100174.72;;;10.46;89.33
32638;BME280;19045;52.268;10.506;2022-11-15T08:10:22;100172.72;;;11.04;86.10
32638;BME280;19045;52.268;10.506;2022-11-15T08:12:56;100159.03;;;12.06;81.30
32638;BME280;19045;52.268;10.506;2022-11-15T08:15:23;100159.19;;;12.94;75.73
32638;BME280;19045;52.268;10.506;2022-11-15T08:17:53;100153.31;;;13.60;73.31
32638;BME280;19045;52.268;10.506;2022-11-15T08:20:20;100150.78;;;14.49;68.23
32638;BME280;19045;52.268;10.506;2022-11-15T08:22:48;100145.47;;;15.19;65.80
32638;BME280;19045;52.268;10.506;2022-11-15T08:25:15;100145.19;;;15.21;64.87
32638;BME280;19045;52.268;10.506;2022-11-15T08:27:41;100153.84;;;15.04;65.79
32638;BME280;19045;52.268;10.506;2022-11-15T08:30:10;100148.25;;;14.95;66.56
32638;BME280;19045;52.268;10.506;2022-11-15T08:32:37;100143.78;;;14.67;65.70
32638;BME280;19045;52.268;10.506;2022-11-15T08:35:05;100155.16;;;14.22;68.10
32638;BME280;19045;52.268;10.506;2022-11-15T08:37:32;100150.75;;;13.44;70.77
32638;BME280;19045;52.268;10.506;2022-11-15T08:40:00;100143.28;;;12.92;73.59
32638;BME280;19045;52.268;10.506;2022-11-15T08:42:26;100143.75;;;12.56;75.86
32638;BME280;19045;52.268;10.506;2022-11-15T08:44:53;100140.63;;;12.23;78.01
32638;BME280;19045;52.268;10.506;2022-11-15T08:47:20;100136.69;;;11.96;79.68
32638;BME280;19045;52.268;10.506;2022-11-15T08:49:46;100142.13;;;11.70;81.21
32638;BME280;19045;52.268;10.506;2022-11-15T08:52:13;100135.38;;;11.58;82.04
32638;BME280;19045;52.268;10.506;2022-11-15T08:54:40;100128.91;;;11.43;82.82
32638;BME280;19045;52.268;10.506;2022-11-15T08:57:08;100134.84;;;11.30;83.66
32638;BME280;19045;52.268;10.506;2022-11-15T08:59:35;100131.34;;;11.25;84.41
32638;BME280;19045;52.268;10.506;2022-11-15T09:02:02;100133.22;;;11.14;85.35
32638;BME280;19045;52.268;10.506;2022-11-15T09:04:29;100133.50;;;11.13;85.63
32638;BME280;19045;52.268;10.506;2022-11-15T09:06:56;100140.75;;;11.02;86.51
32638;BME280;19045;52.268;10.506;2022-11-15T09:09:23;100139.94;;;11.02;86.71
32638;BME280;19045;52.268;10.506;2022-11-15T09:11:49;100137.25;;;10.97;87.45
32638;BME280;19045;52.268;10.506;2022-11-15T09:14:18;100138.59;;;10.99;87.79
32638;BME280;19045;52.268;10.506;2022-11-15T09:16:44;100136.16;;;10.98;87.45
32638;BME280;19045;52.268;10.506;2022-11-15T09:19:11;100142.88;;;11.10;88.57
32638;BME280;19045;52.268;10.506;2022-11-15T09:21:39;100142.91;;;11.20;87.47
32638;BME280;19045;52.268;10.506;2022-11-15T09:24:06;100145.34;;;11.32;87.07
32638;BME280;19045;52.268;10.506;2022-11-15T09:26:33;100147.75;;;11.49;85.25
32638;BME280;19045;52.268;10.506;2022-11-15T09:29:00;100145.28;;;12.08;83.83
32638;BME280;19045;52.268;10.506;2022-11-15T09:31:28;100137.53;;;13.09;78.37
32638;BME280;19045;52.268;10.506;2022-11-15T09:33:55;100142.84;;;14.11;72.89
32638;BME280;19045;52.268;10.506;2022-11-15T09:36:22;100139.47;;;15.22;68.40
32638;BME280;19045;52.268;10.506;2022-11-15T09:38:49;100137.28;;;18.43;59.95
32638;BME280;19045;52.268;10.506;2022-11-15T09:41:33;100132.47;;;21.78;47.20
32638;BME280;19045;52.268;10.506;2022-11-15T09:44:15;100134.19;;;24.49;41.16
32638;BME280;19045;52.268;10.506;2022-11-15T09:46:55;100133.13;;;26.07;36.14
32638;BME280;19045;52.268;10.506;2022-11-15T09:49:25;100126.38;;;27.40;33.22
32638;BME280;19045;52.268;10.506;2022-11-15T09:51:53;100124.50;;;28.28;33.00
32638;BME280;19045;52.268;10.506;2022-11-15T09:54:28;100127.56;;;29.53;31.49
32638;BME280;19045;52.268;10.506;2022-11-15T09:56:56;100119.75;;;30.47;29.95
32638;BME280;19045;52.268;10.506;2022-11-15T09:59:52;100129.56;;;31.77;28.09
32638;BME280;19045;52.268;10.506;2022-11-15T10:02:41;100118.88;;;32.68;26.42
32638;BME280;19045;52.268;10.506;2022-11-15T10:05:11;100117.69;;;33.67;25.93
32638;BME280;19045;52.268;10.506;2022-11-15T10:07:46;100106.88;;;34.43;24.22
32638;BME280;19045;52.268;10.506;2022-11-15T10:10:22;100113.31;;;33.66;24.32
32638;BME280;19045;52.268;10.506;2022-11-15T10:12:52;100115.94;;;32.42;26.39
32638;BME280;19045;52.268;10.506;2022-11-15T10:15:20;100110.50;;;32.72;25.79
32638;BME280;19045;52.268;10.506;2022-11-15T10:18:08;100106.06;;;31.23;27.05
32638;BME280;19045;52.268;10.506;2022-11-15T10:20:42;100097.84;;;30.88;28.60
32638;BME280;19045;52.268;10.506;2022-11-15T10:23:14;100088.88;;;32.08;27.31
32638;BME280;19045;52.268;10.506;2022-11-15T10:25:42;100075.69;;;33.78;25.67
32638;BME280;19045;52.268;10.506;2022-11-15T10:28:13;100072.06;;;35.30;23.67
32638;BME280;19045;52.268;10.506;2022-11-15T10:30:42;100060.16;;;35.61;22.94
32638;BME280;19045;52.268;10.506;2022-11-15T10:33:19;100065.91;;;36.03;22.08
32638;BME280;19045;52.268;10.506;2022-11-15T10:35:48;100060.41;;;35.99;22.84
32638;BME280;19045;52.268;10.506;2022-11-15T10:38:14;100060.22;;;36.51;22.30
32638;BME280;19045;52.268;10.506;2022-11-15T10:40:41;100053.31;;;35.95;21.91
32638;BME280;19045;52.268;10.506;2022-11-15T10:43:15;100045.72;;;36.11;22.67
32638;BME280;19045;52.268;10.506;2022-11-15T10:45:43;100050.97;;;35.77;22.16
32638;BME280;19045;52.268;10.506;2022-11-15T10:48:24;100052.09;;;34.52;23.47
32638;BME280;19045;52.268;10.506;2022-11-15T10:50:52;100039.00;;;34.49;23.67
32638;BME280;19045;52.268;10.506;2022-11-15T10:53:27;100045.84;;;35.04;23.23
32638;BME280;19045;52.268;10.506;2022-11-15T10:55:58;100034.94;;;34.73;23.99
32638;BME280;19045;52.268;10.506;2022-11-15T10:58:33;100036.38;;;34.19;24.01
32638;BME280;19045;52.268;10.506;2022-11-15T11:01:25;100040.53;;;33.04;24.84
32638;BME280;19045;52.268;10.506;2022-11-15T11:04:00;100034.47;;;33.09;24.62
32638;BME280;19045;52.268;10.506;2022-11-15T11:06:28;100034.16;;;33.34;25.33
32638;BME280;19045;52.268;10.506;2022-11-15T11:08:56;100038.69;;;32.94;25.39
32638;BME280;19045;52.268;10.506;2022-11-15T11:11:23;100039.00;;;32.32;26.11
32638;BME280;19045;52.268;10.506;2022-11-15T11:13:50;100037.09;;;31.77;26.81
32638;BME280;19045;52.268;10.506;2022-11-15T11:16:35;100040.94;;;30.23;27.90
32638;BME280;19045;52.268;10.506;2022-11-15T11:19:34;100050.84;;;26.29;33.34
32638;BME280;19045;52.268;10.506;2022-11-15T11:22:14;100044.09;;;23.42;38.28
32638;BME280;19045;52.268;10.506;2022-11-15T11:25:08;100044.69;;;20.81;43.84
32638;BME280;19045;52.268;10.506;2022-11-15T11:27:43;100052.38;;;18.81;49.72
32638;BME280;19045;52.268;10.506;2022-11-15T11:30:20;100046.88;;;17.73;53.76
32638;BME280;19045;52.268;10.506;2022-11-15T11:33:08;100041.81;;;17.04;56.88
32638;BME280;19045;52.268;10.506;2022-11-15T11:35:46;100038.34;;;16.54;59.98
32638;BME280;19045;52.268;10.506;2022-11-15T11:38:29;100048.19;;;15.87;63.11
32638;BME280;19045;52.268;10.506;2022-11-15T11:41:04;100041.66;;;15.29;66.33
32638;BME280;19045;52.268;10.506;2022-11-15T11:43:41;100041.97;;;14.95;68.84
32638;BME280;19045;52.268;10.506;2022-11-15T11:46:25;100036.97;;;14.70;70.20
32638;BME280;19045;52.268;10.506;2022-11-15T11:48:58;100036.88;;;14.56;71.35
32638;BME280;19045;52.268;10.506;2022-11-15T11:51:34;100047.63;;;14.42;72.80
32638;BME280;19045;52.268;10.506;2022-11-15T11:54:05;100037.16;;;14.36;73.48
32638;BME280;19045;52.268;10.506;2022-11-15T11:56:37;100033.03;;;14.20;74.40
32638;BME280;19045;52.268;10.506;2022-11-15T11:59:10;100042.66;;;14.07;75.81
32638;BME280;19045;52.268;10.506;2022-11-15T12:01:43;100033.06;;;13.96;76.87
32638;BME280;19045;52.268;10.506;2022-11-15T12:04:14;100029.47;;;14.24;76.36
32638;BME280;19045;52.268;10.506;2022-11-15T12:06:49;100034.47;;;14.73;74.39
32638;BME280;19045;52.268;10.506;2022-11-15T12:09:21;100022.25;;;14.94;72.82
32638;BME280;19045;52.268;10.506;2022-11-15T12:11:54;100016.19;;;15.62;69.82
32638;BME280;19045;52.268;10.506;2022-11-15T12:14:28;100021.34;;;16.40;66.92
32638;BME280;19045;52.268;10.506;2022-11-15T12:16:57;100003.66;;;16.43;65.77
32638;BME280;19045;52.268;10.506;2022-11-15T12:19:25;100006.16;;;16.03;67.36
32638;BME280;19045;52.268;10.506;2022-11-15T12:21:59;100014.78;;;15.78;68.29
32638;BME280;19045;52.268;10.506;2022-11-15T12:24:32;100012.41;;;16.40;66.55
32638;BME280;19045;52.268;10.506;2022-11-15T12:27:05;100003.34;;;18.21;60.57
32638;BME280;19045;52.268;10.506;2022-11-15T12:29:36;99998.22;;;19.69;54.52
32638;BME280;19045;52.268;10.506;2022-11-15T12:32:05;99991.22;;;21.12;50.11
32638;BME280;19045;52.268;10.506;2022-11-15T12:34:39;99991.44;;;21.77;47.53
32638;BME280;19045;52.268;10.506;2022-11-15T12:40:27;99995.00;;;19.75;51.53
32638;BME280;19045;52.268;10.506;2022-11-15T12:43:00;99992.66;;;18.41;55.33
32638;BME280;19045;52.268;10.506;2022-11-15T12:45:29;99982.75;;;17.32;59.79
32638;BME280;19045;52.268;10.506;2022-11-15T12:50:53;99983.28;;;15.69;67.51
32638;BME280;19045;52.268;10.506;2022-11-15T12:53:27;99972.09;;;15.29;69.42
32638;BME280;19045;52.268;10.506;2022-11-15T12:59:00;99975.06;;;14.68;72.35
32638;BME280;19045;52.268;10.506;2022-11-15T13:01:57;99977.94;;;14.39;74.21
32638;BME280;19045;52.268;10.506;2022-11-15T13:04:28;99967.91;;;14.21;75.00
32638;BME280;19045;52.268;10.506;2022-11-15T13:06:57;99964.34;;;14.07;75.93
32638;BME280;19045;52.268;10.506;2022-11-15T13:09:50;99965.28;;;13.97;77.39